Casstown, OH

05:56 AM EDT on mai 22, 2015 (GMT -0400)
Springfield-Beckley Municipal | | Change Station
CLOSE
Current Station
Aeroport
Location: Springfield,
Elevation: 1050 ft
Nearby Weather Stations

Elev 1050 ft 39.84 °N, 83.84 °W | Updated 1 hour ago

Cer senin
Cer senin
42 °F
Feels Like 38 °F
N
6
Vânt variabil Vânt from SV

astăzi
High -- | Low -- °F
--% Chance of Precip.
Ieri
High -- | Low -- °F
Precip. -- inch
6:15 AM 8:51 PM
Semilună în creştere, 20% visible
Presiunea 30.13 inch
Vizibilitatea 6.0 mile
Nori Cer senin
Vânt rece 38 °F
Punctul de rouă 41 °F
Umiditatea 97%
Precipitaţii 0.00 inch
Adâncimea zăpezii Not available.
UV 0 out of 12
Pollen 8.50 out of 12
Calitatea aerului Not available.
Flu Activity Local Activity
METAR KSGH 220856Z AUTO 23005KT 6SM BR CLR 06/05 A3012 RMK AO2 51003 T00550050 SLP202

More Conditions Fewer Conditions

Presiunea 30.13 inch
Vizibilitatea 6.0 mile
Nori Cer senin
Vânt rece 38 °F
Punctul de rouă 41 °F
Umiditatea 97%
Precipitaţii 0.00 inch
Adâncimea zăpezii Not available.
UV 0 out of 12
Pollen 8.50 out of 12
Calitatea aerului Not available.
Flu Activity Local Activity
METAR KSGH 220856Z AUTO 23005KT 6SM BR CLR 06/05 A3012 RMK AO2 51003 T00550050 SLP202

More Conditions Fewer Conditions

10-Day Weather Forecast

Almanac

Astronomie

May. 22, 2015 Răsărit Apus
Timpul Actual
Crepusculul Civil
Crepusculul nautic
Răsărit Astronomic
Luna
Durata zilei lumină
Lungimea zilei
Tomorrow will be .
, % of the Moon is Illuminated

Extremele de azi

State Highs State Lows

Community

WunderPhotos

Upload Photos

1,823,195 photos uploaded!

WunderBlogs® & News

Nearby

Calitatea aerului

  Calitatea aerului Index de calitate a aerului Poluat
Not available.

Adâncimea zapezii

Station Depth Elevation

Earthquake Activity

Oraş Distance Mag. Time & Date
Minimum magnitude displayed is 2.5.

Coastal Water Temperatures

Locul Temperatura

Stations

Nearby Weather Stations

Locaţia staţiei Temp Vânt rece Punctul de rouă Umiditatea Vânt Precip. Elev Actualizare Type